createdAt,value
2023-03-21T00:01:54.251Z,32.90
2023-03-21T00:04:28.347Z,34.78
2023-03-21T00:06:57.484Z,31.80
2023-03-21T00:09:25.322Z,32.15
2023-03-21T00:11:53.032Z,32.45
2023-03-21T00:14:20.962Z,31.20
2023-03-21T00:16:52.686Z,30.65
2023-03-21T00:19:21.960Z,31.55
2023-03-21T00:22:06.578Z,32.33
2023-03-21T00:24:36.183Z,32.05
2023-03-21T00:27:26.851Z,31.20
2023-03-21T00:29:52.469Z,32.95
2023-03-21T00:32:21.759Z,32.35
2023-03-21T00:35:40.747Z,32.67
2023-03-21T00:37:38.249Z,32.38
2023-03-21T00:40:16.307Z,33.20
2023-03-21T00:42:47.520Z,34.00
2023-03-21T00:45:16.661Z,34.97
2023-03-21T00:47:44.641Z,33.90
2023-03-21T00:50:13.149Z,33.95
2023-03-21T00:52:41.504Z,33.85
2023-03-21T00:55:14.689Z,33.38
2023-03-21T00:57:45.300Z,33.60
2023-03-21T01:00:16.177Z,33.55
2023-03-21T01:03:17.672Z,35.30
2023-03-21T01:06:07.214Z,33.15
2023-03-21T01:08:52.308Z,34.95
2023-03-21T01:11:24.626Z,35.58
2023-03-21T01:13:57.811Z,37.20
2023-03-21T01:16:32.732Z,36.80
2023-03-21T01:19:02.142Z,36.25
2023-03-21T01:21:33.469Z,35.17
2023-03-21T01:24:02.245Z,36.30
2023-03-21T01:26:30.489Z,33.50
2023-03-21T01:28:58.384Z,36.53
2023-03-21T01:31:26.241Z,35.92
2023-03-21T01:33:54.123Z,34.65
2023-03-21T01:36:25.844Z,37.00
2023-03-21T01:38:58.919Z,35.60
2023-03-21T01:41:41.909Z,36.40
2023-03-21T01:44:19.678Z,34.60
2023-03-21T01:47:09.919Z,36.10
2023-03-21T01:49:46.447Z,36.58
2023-03-21T01:52:39.298Z,36.40
2023-03-21T01:55:15.572Z,37.80
2023-03-21T01:58:06.667Z,37.45
2023-03-21T02:01:05.147Z,36.13
2023-03-21T02:03:51.039Z,36.15
2023-03-21T02:07:12.192Z,35.85
2023-03-21T02:09:52.213Z,37.45
2023-03-21T02:12:23.123Z,36.28
2023-03-21T02:14:53.449Z,36.00
2023-03-21T02:18:18.570Z,36.72
2023-03-21T02:21:24.624Z,37.63
2023-03-21T02:24:26.058Z,37.60
2023-03-21T02:27:04.585Z,35.38
2023-03-21T02:29:41.205Z,36.67
2023-03-21T02:32:37.043Z,37.15
2023-03-21T02:35:39.136Z,36.42
2023-03-21T02:38:19.877Z,37.10
2023-03-21T02:41:00.434Z,36.75
2023-03-21T02:43:42.701Z,36.58
2023-03-21T02:46:33.248Z,35.38
2023-03-21T02:49:11.299Z,37.00
2023-03-21T02:51:42.924Z,36.80
2023-03-21T02:54:38.435Z,36.40
2023-03-21T02:57:06.959Z,34.65
2023-03-21T02:59:44.388Z,33.92
2023-03-21T03:02:23.295Z,35.80
2023-03-21T03:04:51.165Z,34.47
2023-03-21T03:07:46.702Z,37.55
2023-03-21T03:10:23.534Z,36.40
2023-03-21T03:13:09.919Z,37.97
2023-03-21T03:16:04.607Z,35.28
2023-03-21T03:18:44.326Z,36.72
2023-03-21T03:21:32.875Z,37.90
2023-03-21T03:24:07.951Z,38.60
2023-03-21T03:27:10.095Z,37.42
2023-03-21T03:29:42.810Z,35.58
2023-03-21T03:32:17.593Z,35.40
2023-03-21T03:34:52.144Z,36.42
2023-03-21T03:37:26.432Z,35.55
2023-03-21T03:40:05.222Z,35.65
2023-03-21T03:42:43.556Z,36.05
2023-03-21T03:45:30.695Z,36.47
2023-03-21T03:48:07.820Z,36.53
2023-03-21T03:50:52.189Z,35.42
2023-03-21T03:53:38.229Z,37.70
2023-03-21T03:56:10.019Z,37.63
2023-03-21T03:58:45.569Z,34.75
2023-03-21T04:01:17.232Z,34.85
2023-03-21T04:04:00.825Z,34.88
2023-03-21T04:06:34.955Z,36.30
2023-03-21T04:09:18.762Z,35.80
2023-03-21T04:11:48.907Z,38.42
2023-03-21T04:14:17.202Z,37.35
2023-03-21T04:16:46.854Z,34.83
2023-03-21T04:19:18.524Z,35.45
2023-03-21T04:21:47.618Z,35.70
2023-03-21T04:24:17.458Z,35.00
2023-03-21T04:26:48.942Z,34.30
2023-03-21T04:29:38.241Z,37.30
2023-03-21T04:32:29.244Z,37.83
2023-03-21T04:35:11.443Z,35.40
2023-03-21T04:37:39.481Z,35.63
2023-03-21T04:40:10.840Z,34.58
2023-03-21T04:42:38.843Z,35.42
2023-03-21T04:45:07.653Z,32.80
2023-03-21T04:47:35.594Z,35.03
2023-03-21T04:50:04.256Z,33.28
2023-03-21T04:52:32.022Z,34.70
2023-03-21T04:54:59.880Z,34.05
2023-03-21T04:57:28.090Z,35.05
2023-03-21T04:59:56.372Z,33.38
2023-03-21T05:02:24.642Z,35.72
2023-03-21T05:04:52.688Z,34.35
2023-03-21T05:07:26.496Z,33.42
2023-03-21T05:09:55.730Z,33.97
2023-03-21T05:12:23.494Z,34.42
2023-03-21T05:14:51.361Z,34.05
2023-03-21T05:17:23.407Z,33.20
2023-03-21T05:19:53.060Z,31.95
2023-03-21T05:22:20.969Z,32.17
2023-03-21T05:24:50.445Z,31.55
2023-03-21T05:27:45.501Z,32.47
2023-03-21T05:30:17.602Z,29.75
2023-03-21T05:32:47.866Z,30.10
2023-03-21T05:35:15.828Z,30.80
2023-03-21T05:37:43.856Z,30.27
2023-03-21T05:40:12.514Z,30.30
2023-03-21T05:42:44.323Z,30.45
2023-03-21T05:45:24.024Z,30.08
2023-03-21T05:47:52.700Z,30.17
2023-03-21T05:50:24.027Z,31.73
2023-03-21T05:53:06.470Z,31.73
2023-03-21T05:55:35.388Z,30.35
2023-03-21T05:58:04.943Z,31.73
2023-03-21T06:00:33.964Z,31.48
2023-03-21T06:03:16.859Z,28.63
2023-03-21T06:06:04.133Z,28.23
2023-03-21T06:08:40.236Z,30.20
2023-03-21T06:11:24.924Z,27.80
2023-03-21T06:14:01.010Z,26.98
2023-03-21T06:16:30.017Z,26.55
2023-03-21T06:18:58.945Z,27.85
2023-03-21T06:21:38.988Z,27.33
2023-03-21T06:24:09.234Z,27.63
2023-03-21T06:26:37.817Z,29.13
2023-03-21T06:29:06.748Z,26.77
2023-03-21T06:31:34.838Z,27.42
2023-03-21T06:34:04.763Z,26.17
2023-03-21T06:36:33.977Z,26.13
2023-03-21T06:39:02.211Z,27.02
2023-03-21T06:41:33.763Z,24.17
2023-03-21T06:44:05.702Z,24.83
2023-03-21T06:46:39.771Z,23.83
2023-03-21T06:50:23.811Z,23.48
2023-03-21T07:06:52.105Z,22.83
2023-03-21T07:09:24.822Z,21.58
2023-03-21T07:12:13.041Z,22.85
2023-03-21T07:15:05.069Z,21.63
2023-03-21T07:17:33.334Z,22.13
2023-03-21T07:20:01.692Z,21.67
2023-03-21T07:22:29.753Z,21.05
2023-03-21T07:25:04.744Z,21.33
2023-03-21T07:27:41.240Z,22.98
2023-03-21T07:30:12.107Z,20.67
2023-03-21T07:32:40.187Z,21.60
2023-03-21T07:35:11.787Z,21.10
2023-03-21T07:37:41.061Z,21.55
2023-03-21T07:40:10.510Z,21.55
2023-03-21T07:42:42.619Z,19.88
2023-03-21T07:45:16.573Z,20.42
2023-03-21T07:47:46.816Z,18.92
2023-03-21T07:50:15.371Z,20.58
2023-03-21T07:52:43.419Z,20.77
2023-03-21T07:55:12.141Z,22.48
2023-03-21T07:57:40.779Z,20.27
2023-03-21T08:00:11.034Z,20.35
2023-03-21T08:02:42.905Z,21.10
2023-03-21T08:05:11.694Z,20.60
2023-03-21T08:07:39.376Z,22.02
2023-03-21T08:10:08.408Z,21.05
2023-03-21T08:12:36.485Z,23.15
2023-03-21T08:15:04.661Z,21.42
2023-03-21T08:17:33.925Z,23.20
2023-03-21T08:20:01.953Z,26.58
2023-03-21T08:22:29.790Z,23.63
2023-03-21T08:24:58.119Z,24.30
2023-03-21T08:27:26.239Z,23.85
2023-03-21T08:29:53.937Z,24.77
2023-03-21T08:32:28.565Z,25.80
2023-03-21T08:34:59.148Z,25.45
2023-03-21T08:37:29.381Z,25.92
2023-03-21T08:39:57.936Z,24.95
2023-03-21T08:42:26.702Z,25.48
2023-03-21T08:44:54.471Z,25.83
2023-03-21T08:47:22.350Z,25.55
2023-03-21T08:49:50.044Z,25.00
2023-03-21T08:52:17.721Z,25.45
2023-03-21T08:54:45.839Z,26.58
2023-03-21T08:57:13.571Z,25.95
2023-03-21T08:59:41.377Z,26.17
2023-03-21T09:02:13.690Z,25.33
2023-03-21T09:04:43.997Z,24.95
2023-03-21T09:07:14.433Z,26.70
2023-03-21T09:09:42.387Z,26.10
2023-03-21T09:12:10.372Z,25.90
2023-03-21T09:14:38.096Z,25.88
2023-03-21T09:17:05.868Z,25.55
2023-03-21T09:19:35.142Z,24.48
2023-03-21T09:22:04.802Z,24.45
2023-03-21T09:24:33.106Z,24.63
2023-03-21T09:27:01.192Z,25.83
2023-03-21T09:29:29.513Z,24.88
2023-03-21T09:31:57.783Z,24.75
2023-03-21T09:34:26.608Z,25.10
2023-03-21T09:36:57.428Z,24.98
2023-03-21T09:39:26.522Z,25.80
2023-03-21T09:42:27.520Z,24.15
2023-03-21T09:45:21.952Z,23.65
2023-03-21T09:47:54.172Z,23.67
2023-03-21T09:50:31.761Z,21.70
2023-03-21T09:53:07.353Z,24.10
2023-03-21T09:55:39.955Z,23.45
2023-03-21T09:58:07.985Z,22.25
2023-03-21T10:00:42.243Z,23.30
2023-03-21T10:03:36.607Z,22.55
2023-03-21T10:06:12.462Z,22.20
2023-03-21T10:08:43.244Z,21.80
2023-03-21T10:11:32.506Z,22.65
2023-03-21T10:14:11.477Z,20.75
2023-03-21T10:16:45.977Z,22.10
2023-03-21T10:19:16.937Z,21.48
2023-03-21T10:22:00.297Z,21.75
2023-03-21T10:24:32.056Z,19.45
2023-03-21T10:27:01.802Z,19.02
2023-03-21T10:29:43.403Z,19.50
2023-03-21T10:32:17.558Z,19.45
2023-03-21T10:37:19.467Z,19.75
2023-03-21T10:39:51.733Z,19.40
2023-03-21T10:42:26.404Z,19.60
2023-03-21T10:44:56.752Z,18.30
2023-03-21T10:47:32.531Z,18.83
2023-03-21T10:50:20.557Z,18.52
2023-03-21T10:52:51.472Z,17.63
2023-03-21T10:55:28.936Z,17.50
2023-03-21T10:58:00.436Z,18.30
2023-03-21T11:00:34.346Z,17.45
2023-03-21T11:03:03.815Z,16.92
2023-03-21T11:05:41.642Z,17.05
2023-03-21T11:08:15.549Z,16.33
2023-03-21T11:11:05.270Z,16.88
2023-03-21T11:13:42.042Z,15.23
2023-03-21T11:16:30.187Z,14.85
2023-03-21T11:19:02.565Z,14.38
2023-03-21T11:21:37.048Z,13.50
2023-03-21T11:24:07.658Z,13.85
2023-03-21T11:26:43.591Z,14.57
2023-03-21T11:29:24.296Z,12.65
2023-03-21T11:31:52.426Z,13.60
2023-03-21T11:34:33.080Z,8.77
2023-03-21T11:37:02.921Z,10.23
2023-03-21T11:39:32.915Z,10.95
2023-03-21T11:42:00.792Z,11.52
2023-03-21T11:44:34.757Z,12.23
2023-03-21T11:47:02.922Z,11.70
2023-03-21T11:49:31.442Z,12.05
2023-03-21T11:52:05.319Z,12.38
2023-03-21T11:54:58.020Z,13.23
2023-03-21T11:58:14.181Z,13.82
2023-03-21T12:01:01.728Z,13.65
2023-03-21T12:03:55.018Z,14.07
2023-03-21T12:06:32.175Z,13.40
2023-03-21T12:09:24.154Z,12.43
2023-03-21T12:12:38.299Z,13.70
2023-03-21T12:15:12.788Z,11.65
2023-03-21T12:18:03.580Z,10.75
2023-03-21T12:20:53.811Z,10.60
2023-03-21T12:23:33.462Z,13.40
2023-03-21T12:26:19.870Z,13.50
2023-03-21T12:29:12.650Z,16.65
2023-03-21T12:31:44.345Z,17.83
2023-03-21T12:34:40.188Z,17.58
2023-03-21T12:37:37.561Z,18.77
2023-03-21T12:40:18.153Z,19.10
2023-03-21T12:43:03.351Z,20.17
2023-03-21T12:45:47.387Z,18.42
2023-03-21T12:48:42.097Z,19.23
2023-03-21T12:51:17.802Z,18.40
2023-03-21T12:53:59.521Z,19.30
2023-03-21T12:56:33.095Z,18.35
2023-03-21T12:59:12.901Z,18.85
2023-03-21T13:01:43.914Z,17.55
2023-03-21T13:04:39.117Z,19.25
2023-03-21T13:07:10.942Z,17.92
2023-03-21T13:09:41.419Z,17.30
2023-03-21T13:12:24.937Z,18.52
2023-03-21T13:15:24.410Z,18.10
2023-03-21T13:18:02.411Z,18.60
2023-03-21T13:20:44.417Z,17.33
2023-03-21T13:23:14.068Z,17.02
2023-03-21T13:25:49.728Z,16.25
2023-03-21T13:28:29.533Z,16.90
2023-03-21T13:31:22.884Z,17.25
2023-03-21T13:33:57.890Z,16.13
2023-03-21T13:36:32.521Z,17.52
2023-03-21T13:39:26.303Z,16.63
2023-03-21T13:42:22.453Z,17.17
2023-03-21T13:45:03.542Z,16.52
2023-03-21T13:47:55.931Z,17.10
2023-03-21T13:50:37.468Z,17.52
2023-03-21T13:53:21.962Z,17.55
2023-03-21T13:56:22.272Z,16.67
2023-03-21T13:58:54.468Z,17.42
2023-03-21T14:01:31.307Z,16.52
2023-03-21T14:04:24.135Z,16.83
2023-03-21T14:07:08.645Z,16.73
2023-03-21T14:09:41.061Z,16.58
2023-03-21T14:12:15.064Z,16.75
2023-03-21T14:17:30.558Z,16.85
2023-03-21T14:20:26.781Z,17.65
2023-03-21T14:22:57.255Z,16.75
2023-03-21T14:25:44.377Z,18.08
2023-03-21T14:28:25.075Z,15.98
2023-03-21T14:30:57.113Z,16.88
2023-03-21T14:33:40.438Z,17.25
2023-03-21T14:36:16.253Z,17.20
2023-03-21T14:38:54.319Z,16.05
2023-03-21T14:41:29.985Z,16.00
2023-03-21T14:44:10.746Z,15.18
2023-03-21T14:46:40.314Z,16.38
2023-03-21T14:49:26.347Z,16.10
2023-03-21T14:51:57.541Z,15.38
2023-03-21T14:54:27.648Z,15.30
2023-03-21T14:57:00.948Z,16.35
2023-03-21T14:59:38.982Z,16.15
2023-03-21T15:02:14.646Z,16.45
2023-03-21T15:04:49.254Z,15.18
2023-03-21T15:07:27.827Z,16.23
2023-03-21T15:10:04.128Z,15.23
2023-03-21T15:12:32.970Z,15.07
2023-03-21T15:15:02.321Z,15.40
2023-03-21T15:17:30.971Z,16.45
2023-03-21T15:19:58.984Z,15.15
2023-03-21T15:22:41.076Z,15.18
2023-03-21T15:25:17.752Z,15.25
2023-03-21T15:27:45.917Z,15.35
2023-03-21T15:30:21.818Z,15.10
2023-03-21T15:32:50.135Z,15.75
2023-03-21T15:35:54.505Z,15.38
2023-03-21T15:38:45.435Z,14.93
2023-03-21T15:41:27.054Z,15.35
2023-03-21T15:44:10.439Z,16.00
2023-03-21T15:46:46.549Z,14.80
2023-03-21T15:49:17.124Z,14.77
2023-03-21T15:52:01.497Z,15.43
2023-03-21T15:57:34.552Z,14.70
2023-03-21T16:00:31.549Z,14.68
2023-03-21T16:03:07.741Z,14.90
2023-03-21T16:05:35.853Z,14.65
2023-03-21T16:08:27.740Z,15.07
2023-03-21T16:11:07.403Z,14.85
2023-03-21T16:13:36.655Z,14.48
2023-03-21T16:16:05.156Z,14.18
2023-03-21T16:18:34.889Z,15.27
2023-03-21T16:21:03.401Z,14.10
2023-03-21T16:23:31.852Z,14.10
2023-03-21T16:26:00.339Z,14.00
2023-03-21T16:28:28.271Z,15.18
2023-03-21T16:30:56.242Z,13.85
2023-03-21T16:33:25.598Z,14.18
2023-03-21T16:35:54.364Z,14.25
2023-03-21T16:38:22.458Z,13.43
2023-03-21T16:40:52.142Z,15.48
2023-03-21T16:43:20.739Z,15.38
2023-03-21T16:45:49.198Z,15.27
2023-03-21T16:48:20.135Z,15.07
2023-03-21T16:50:48.988Z,15.40
2023-03-21T16:53:17.483Z,14.35
2023-03-21T16:55:47.139Z,16.10
2023-03-21T16:58:16.237Z,15.80
2023-03-21T17:00:44.767Z,15.65
2023-03-21T17:03:15.857Z,15.63
2023-03-21T17:05:46.202Z,14.32
2023-03-21T17:08:21.120Z,14.32
2023-03-21T17:10:49.633Z,14.25
2023-03-21T17:13:17.842Z,14.73
2023-03-21T17:15:46.976Z,14.32
2023-03-21T17:18:16.221Z,14.77
2023-03-21T17:20:44.653Z,14.30
2023-03-21T17:23:16.115Z,15.43
2023-03-21T17:25:44.252Z,13.70
2023-03-21T17:28:12.481Z,14.23
2023-03-21T17:30:41.229Z,15.02
2023-03-21T17:33:09.689Z,13.68
2023-03-21T17:35:37.876Z,14.77
2023-03-21T17:38:13.466Z,15.13
2023-03-21T17:40:41.812Z,14.88
2023-03-21T17:43:17.281Z,15.90
2023-03-21T17:45:45.974Z,16.55
2023-03-21T17:48:13.866Z,14.82
2023-03-21T17:50:41.897Z,16.00
2023-03-21T17:53:09.679Z,16.25
2023-03-21T17:55:37.738Z,15.98
2023-03-21T17:58:06.405Z,17.10
2023-03-21T18:00:34.271Z,16.40
2023-03-21T18:03:02.685Z,17.10
2023-03-21T18:05:30.915Z,15.35
2023-03-21T18:08:10.299Z,15.73
2023-03-21T18:10:39.543Z,15.80
2023-03-21T18:13:07.603Z,16.15
2023-03-21T18:15:38.110Z,17.45
2023-03-21T18:18:06.750Z,17.52
2023-03-21T18:20:51.209Z,16.23
2023-03-21T18:23:20.057Z,16.50
2023-03-21T18:25:48.459Z,16.30
2023-03-21T18:28:20.463Z,17.63
2023-03-21T18:31:07.884Z,20.55
2023-03-21T18:33:40.463Z,19.83
2023-03-21T18:36:09.746Z,21.30
2023-03-21T18:38:38.204Z,19.92
2023-03-21T18:41:10.534Z,19.75
2023-03-21T18:46:27.722Z,19.30
2023-03-21T18:48:55.865Z,20.73
2023-03-21T18:51:24.314Z,19.52
2023-03-21T18:53:52.611Z,19.33
2023-03-21T18:57:19.567Z,20.02
2023-03-21T18:59:09.462Z,18.88
2023-03-21T19:01:37.848Z,18.08
2023-03-21T19:04:20.725Z,20.73
2023-03-21T19:06:51.784Z,21.42
2023-03-21T19:09:20.085Z,20.20
2023-03-21T19:11:47.973Z,22.33
2023-03-21T19:14:17.963Z,19.60
2023-03-21T19:17:32.636Z,18.60
2023-03-21T19:19:34.491Z,20.95
2023-03-21T19:22:02.504Z,20.52
2023-03-21T19:24:31.296Z,18.88
2023-03-21T19:26:59.264Z,18.00
2023-03-21T19:29:27.212Z,18.75
2023-03-21T19:31:55.278Z,18.45
2023-03-21T19:34:23.274Z,17.48
2023-03-21T19:36:52.494Z,16.98
2023-03-21T19:39:23.001Z,18.48
2023-03-21T19:41:55.261Z,18.00
2023-03-21T19:44:29.941Z,18.70
2023-03-21T19:47:01.712Z,18.77
2023-03-21T19:49:56.470Z,19.83
2023-03-21T19:52:20.747Z,19.70
2023-03-21T19:54:49.208Z,18.60
2023-03-21T19:57:18.596Z,18.20
2023-03-21T19:59:47.674Z,18.35
2023-03-21T20:02:34.587Z,17.33
2023-03-21T20:05:07.979Z,18.60
2023-03-21T20:07:36.151Z,16.90
2023-03-21T20:10:06.128Z,19.27
2023-03-21T20:12:34.162Z,18.33
2023-03-21T20:15:16.712Z,18.33
2023-03-21T20:17:47.067Z,18.23
2023-03-21T20:20:17.722Z,18.70
2023-03-21T20:23:08.126Z,20.13
2023-03-21T20:25:40.679Z,18.23
2023-03-21T20:28:24.750Z,18.75
2023-03-21T20:31:00.709Z,19.58
2023-03-21T20:33:29.837Z,20.10
2023-03-21T20:38:56.305Z,19.13
2023-03-21T20:41:27.672Z,20.45
2023-03-21T20:46:53.813Z,21.42
2023-03-21T20:49:23.265Z,19.20
2023-03-21T20:54:49.911Z,20.55
2023-03-21T20:57:20.181Z,20.48
2023-03-21T20:59:48.425Z,22.27
2023-03-21T21:02:17.139Z,23.27
2023-03-21T21:05:08.145Z,20.77
2023-03-21T21:07:35.451Z,22.00
2023-03-21T21:10:04.685Z,21.88
2023-03-21T21:12:39.767Z,22.48
2023-03-21T21:15:10.078Z,22.23
2023-03-21T21:18:08.747Z,21.30
2023-03-21T21:20:29.620Z,22.70
2023-03-21T21:23:00.288Z,21.88
2023-03-21T21:25:32.297Z,21.17
2023-03-21T21:28:02.086Z,22.05
2023-03-21T21:30:32.771Z,22.42
2023-03-21T21:33:01.405Z,21.20
2023-03-21T21:35:29.439Z,21.20
2023-03-21T21:37:57.552Z,21.92
2023-03-21T21:40:25.833Z,21.88
2023-03-21T21:42:54.027Z,21.65
2023-03-21T21:45:22.638Z,21.77
2023-03-21T21:47:51.452Z,22.27
2023-03-21T21:50:22.117Z,21.75
2023-03-21T21:52:52.909Z,21.13
2023-03-21T21:55:22.220Z,21.17
2023-03-21T21:57:53.508Z,21.30
2023-03-21T22:00:24.026Z,20.55
2023-03-21T22:02:53.093Z,21.10
2023-03-21T22:05:21.524Z,20.60
2023-03-21T22:15:18.857Z,20.77
2023-03-21T22:17:47.060Z,20.65
2023-03-21T22:20:17.163Z,21.55
2023-03-21T22:22:45.475Z,20.83
2023-03-21T22:25:16.054Z,21.98
2023-03-21T22:27:44.597Z,22.50
2023-03-21T22:30:17.492Z,20.77
2023-03-21T22:32:56.483Z,19.80
2023-03-21T22:35:31.340Z,20.80
2023-03-21T22:38:01.079Z,20.35
2023-03-21T22:40:29.127Z,20.73
2023-03-21T22:42:57.081Z,20.27
2023-03-21T22:45:25.006Z,21.17
2023-03-21T22:47:52.986Z,21.35
2023-03-21T22:50:21.067Z,21.52
2023-03-21T22:52:48.993Z,20.85
2023-03-21T22:55:17.401Z,22.10
2023-03-21T22:57:46.531Z,21.02
2023-03-21T23:00:14.961Z,21.33
2023-03-21T23:02:42.952Z,18.85
2023-03-21T23:05:10.860Z,21.10
2023-03-21T23:07:40.202Z,21.00
2023-03-21T23:10:09.166Z,20.98
2023-03-21T23:12:37.703Z,21.17
2023-03-21T23:15:08.224Z,22.58
2023-03-21T23:17:36.394Z,22.35
2023-03-21T23:20:07.976Z,22.45
2023-03-21T23:22:36.282Z,21.17
2023-03-21T23:25:04.488Z,22.45
2023-03-21T23:27:32.394Z,23.67
2023-03-21T23:30:00.490Z,22.95
2023-03-21T23:32:28.445Z,22.00
2023-03-21T23:34:56.354Z,23.30
2023-03-21T23:37:30.203Z,23.85
2023-03-21T23:39:58.180Z,21.80
2023-03-21T23:42:28.908Z,22.20
2023-03-21T23:44:57.357Z,24.08
2023-03-21T23:47:25.351Z,22.95
2023-03-21T23:49:53.246Z,22.83
2023-03-21T23:52:21.491Z,21.70
2023-03-21T23:54:49.409Z,22.92
2023-03-21T23:57:18.204Z,22.23
2023-03-21T23:59:48.826Z,22.20
